createdAt,value
2022-10-30T00:01:22.813Z,13.30
2022-10-30T00:03:24.480Z,13.30
2022-10-30T00:05:26.180Z,13.30
2022-10-30T00:07:27.740Z,13.20
2022-10-30T00:09:29.318Z,13.20
2022-10-30T00:11:30.879Z,13.20
2022-10-30T00:13:32.439Z,13.20
2022-10-30T00:15:34.042Z,13.20
2022-10-30T00:17:35.631Z,13.20
2022-10-30T00:19:37.220Z,13.20
2022-10-30T00:21:38.970Z,13.10
2022-10-30T00:23:51.116Z,13.10
2022-10-30T00:25:52.760Z,13.10
2022-10-30T00:27:54.329Z,13.10
2022-10-30T00:29:55.972Z,13.10
2022-10-30T00:31:57.689Z,13.20
2022-10-30T00:33:59.241Z,13.20
2022-10-30T00:36:00.972Z,13.20
2022-10-30T00:38:02.778Z,13.20
2022-10-30T00:40:04.985Z,13.10
2022-10-30T00:42:08.667Z,13.10
2022-10-30T00:44:28.712Z,13.00
2022-10-30T00:46:33.460Z,13.10
2022-10-30T00:48:35.560Z,13.10
2022-10-30T00:50:37.696Z,13.10
2022-10-30T00:52:44.641Z,13.10
2022-10-30T00:54:46.310Z,13.10
2022-10-30T00:56:48.993Z,13.00
2022-10-30T00:59:02.100Z,13.00
2022-10-30T01:01:05.439Z,13.00
2022-10-30T01:03:07.120Z,13.00
2022-10-30T01:07:14.363Z,13.10
2022-10-30T01:09:16.293Z,13.00
2022-10-30T01:11:17.991Z,13.00
2022-10-30T01:13:21.090Z,13.00
2022-10-30T01:15:26.688Z,13.00
2022-10-30T01:17:48.516Z,13.00
2022-10-30T01:19:59.161Z,12.90
2022-10-30T01:22:16.787Z,12.90
2022-10-30T01:24:30.296Z,12.90
2022-10-30T01:26:55.954Z,12.90
2022-10-30T01:29:09.731Z,12.80
2022-10-30T01:31:20.560Z,12.80
2022-10-30T01:33:37.420Z,12.80
2022-10-30T01:35:58.988Z,12.90
2022-10-30T01:38:04.503Z,12.80
2022-10-30T01:40:10.080Z,12.80
2022-10-30T01:42:31.608Z,12.80
2022-10-30T01:44:33.472Z,12.80
2022-10-30T01:46:53.382Z,12.70
2022-10-30T01:48:58.133Z,12.60
2022-10-30T01:51:02.724Z,12.70
2022-10-30T01:53:10.491Z,12.70
2022-10-30T01:55:15.082Z,12.80
2022-10-30T01:57:19.735Z,12.80
2022-10-30T01:59:24.651Z,12.80
2022-10-30T02:01:27.636Z,12.90
2022-10-30T02:03:29.284Z,12.80
2022-10-30T02:05:38.779Z,12.90
2022-10-30T02:07:40.332Z,12.90
2022-10-30T02:09:42.242Z,12.80
2022-10-30T02:11:45.194Z,12.70
2022-10-30T02:13:46.809Z,12.70
2022-10-30T02:15:49.032Z,12.50
2022-10-30T02:17:50.610Z,12.50
2022-10-30T02:19:52.186Z,12.60
2022-10-30T02:21:53.764Z,12.60
2022-10-30T02:23:55.338Z,12.60
2022-10-30T02:25:56.966Z,12.60
2022-10-30T02:27:59.094Z,12.70
2022-10-30T02:30:00.716Z,12.70
2022-10-30T02:32:02.429Z,12.60
2022-10-30T02:34:04.161Z,12.60
2022-10-30T02:36:06.010Z,12.70
2022-10-30T02:38:07.582Z,12.90
2022-10-30T02:40:09.437Z,12.90
2022-10-30T02:42:11.575Z,12.80
2022-10-30T02:44:13.155Z,12.70
2022-10-30T02:46:14.724Z,12.70
2022-10-30T02:48:16.276Z,12.70
2022-10-30T02:50:17.897Z,12.90
2022-10-30T02:52:19.514Z,12.90
2022-10-30T02:54:21.085Z,12.90
2022-10-30T02:56:22.655Z,12.80
2022-10-30T02:58:24.241Z,12.70
2022-10-30T03:00:25.796Z,12.70
2022-10-30T03:02:27.414Z,12.70
2022-10-30T03:04:28.962Z,12.60
2022-10-30T03:06:30.584Z,12.60
2022-10-30T03:08:32.281Z,12.60
2022-10-30T03:10:33.844Z,12.50
2022-10-30T03:12:35.376Z,12.50
2022-10-30T03:14:36.917Z,12.50
2022-10-30T03:16:38.579Z,12.50
2022-10-30T03:18:40.382Z,12.50
2022-10-30T03:20:41.970Z,12.50
2022-10-30T03:22:43.561Z,12.50
2022-10-30T03:24:45.145Z,12.50
2022-10-30T03:26:47.031Z,12.50
2022-10-30T03:28:48.588Z,12.40
2022-10-30T03:30:50.540Z,12.30
2022-10-30T03:32:52.104Z,12.30
2022-10-30T03:34:53.653Z,12.40
2022-10-30T03:36:55.233Z,12.40
2022-10-30T03:38:56.786Z,12.30
2022-10-30T03:40:58.706Z,12.30
2022-10-30T03:43:00.653Z,12.20
2022-10-30T03:45:02.538Z,12.20
2022-10-30T03:47:04.190Z,12.30
2022-10-30T03:49:05.744Z,12.30
2022-10-30T03:51:07.490Z,12.20
2022-10-30T03:53:09.248Z,12.30
2022-10-30T03:55:10.798Z,12.30
2022-10-30T03:57:12.339Z,12.20
2022-10-30T03:59:13.933Z,12.30
2022-10-30T04:01:15.596Z,12.10
2022-10-30T04:03:17.266Z,12.00
2022-10-30T04:05:20.386Z,12.10
2022-10-30T04:07:21.949Z,12.00
2022-10-30T04:09:23.568Z,12.00
2022-10-30T04:11:25.242Z,12.00
2022-10-30T04:13:26.888Z,11.90
2022-10-30T04:15:28.464Z,12.00
2022-10-30T04:17:30.009Z,11.90
2022-10-30T04:19:32.104Z,11.90
2022-10-30T04:21:33.718Z,11.90
2022-10-30T04:23:35.352Z,11.90
2022-10-30T04:25:36.954Z,11.90
2022-10-30T04:27:41.984Z,11.80
2022-10-30T04:29:43.548Z,11.80
2022-10-30T04:31:45.097Z,11.80
2022-10-30T04:33:46.654Z,11.80
2022-10-30T04:35:48.191Z,11.80
2022-10-30T04:37:53.478Z,11.70
2022-10-30T04:39:55.044Z,11.70
2022-10-30T04:41:56.663Z,11.70
2022-10-30T04:43:58.203Z,11.70
2022-10-30T04:45:59.769Z,11.70
2022-10-30T04:48:12.397Z,11.70
2022-10-30T04:50:14.380Z,11.70
2022-10-30T04:52:15.920Z,11.70
2022-10-30T04:54:17.587Z,11.70
2022-10-30T04:56:19.146Z,11.60
2022-10-30T04:58:20.707Z,11.60
2022-10-30T05:00:22.284Z,11.60
2022-10-30T05:02:24.364Z,11.60
2022-10-30T05:04:26.116Z,11.60
2022-10-30T05:06:30.098Z,11.50
2022-10-30T05:08:32.034Z,11.50
2022-10-30T05:10:33.724Z,11.50
2022-10-30T05:12:35.290Z,11.50
2022-10-30T05:14:36.860Z,11.40
2022-10-30T05:16:38.464Z,11.50
2022-10-30T05:18:40.165Z,11.50
2022-10-30T05:20:41.760Z,11.40
2022-10-30T05:22:43.345Z,11.40
2022-10-30T05:24:44.886Z,11.30
2022-10-30T05:26:46.518Z,11.20
2022-10-30T05:28:48.176Z,11.20
2022-10-30T05:30:52.442Z,11.20
2022-10-30T05:32:57.847Z,11.30
2022-10-30T05:34:59.592Z,11.20
2022-10-30T05:37:01.443Z,11.30
2022-10-30T05:39:03.134Z,11.20
2022-10-30T05:41:04.715Z,11.20
2022-10-30T05:43:06.487Z,11.10
2022-10-30T05:45:08.245Z,11.10
2022-10-30T05:47:11.072Z,11.20
2022-10-30T05:49:12.639Z,11.20
2022-10-30T05:51:14.218Z,11.10
2022-10-30T05:53:15.784Z,11.10
2022-10-30T05:55:17.360Z,11.10
2022-10-30T05:57:18.909Z,11.10
2022-10-30T05:59:20.462Z,11.00
2022-10-30T06:01:22.187Z,11.10
2022-10-30T06:03:23.820Z,11.30
2022-10-30T06:05:25.379Z,11.30
2022-10-30T06:07:26.956Z,11.10
2022-10-30T06:09:28.519Z,11.00
2022-10-30T06:11:30.195Z,11.10
2022-10-30T06:13:31.893Z,11.10
2022-10-30T06:15:33.710Z,11.10
2022-10-30T06:17:35.319Z,11.10
2022-10-30T06:19:36.949Z,11.00
2022-10-30T06:21:38.501Z,11.10
2022-10-30T06:23:40.166Z,11.10
2022-10-30T06:25:41.842Z,11.10
2022-10-30T06:27:43.392Z,11.10
2022-10-30T06:29:44.956Z,11.10
2022-10-30T06:31:46.501Z,11.10
2022-10-30T06:33:48.039Z,11.10
2022-10-30T06:35:49.684Z,11.00
2022-10-30T06:37:53.411Z,11.10
2022-10-30T06:39:55.151Z,11.10
2022-10-30T06:41:56.765Z,11.00
2022-10-30T06:43:58.413Z,11.10
2022-10-30T06:46:00.164Z,11.10
2022-10-30T06:48:02.560Z,11.30
2022-10-30T06:50:05.134Z,11.40
2022-10-30T06:52:06.694Z,11.40
2022-10-30T06:54:08.325Z,11.50
2022-10-30T06:56:09.899Z,11.60
2022-10-30T06:58:11.464Z,11.50
2022-10-30T07:00:13.312Z,11.50
2022-10-30T07:02:15.191Z,11.50
2022-10-30T07:04:16.799Z,11.50
2022-10-30T07:06:18.380Z,11.40
2022-10-30T07:08:20.056Z,11.50
2022-10-30T07:10:21.580Z,11.50
2022-10-30T07:12:23.275Z,11.60
2022-10-30T07:14:25.206Z,11.60
2022-10-30T07:16:27.344Z,11.70
2022-10-30T07:18:28.976Z,11.70
2022-10-30T07:20:31.616Z,11.70
2022-10-30T07:22:33.169Z,11.80
2022-10-30T07:24:34.911Z,11.80
2022-10-30T07:26:38.110Z,11.70
2022-10-30T07:28:39.782Z,11.70
2022-10-30T07:30:41.423Z,11.80
2022-10-30T07:32:43.224Z,11.80
2022-10-30T07:34:44.843Z,11.80
2022-10-30T07:36:46.535Z,11.80
2022-10-30T07:38:48.791Z,11.90
2022-10-30T07:40:53.749Z,11.90
2022-10-30T07:42:56.681Z,12.00
2022-10-30T07:44:58.803Z,12.00
2022-10-30T07:47:00.458Z,11.90
2022-10-30T07:49:02.122Z,11.90
2022-10-30T07:51:04.237Z,12.00
2022-10-30T07:53:05.906Z,12.10
2022-10-30T07:55:07.713Z,12.10
2022-10-30T07:57:09.278Z,12.10
2022-10-30T07:59:10.821Z,12.20
2022-10-30T08:01:12.576Z,12.20
2022-10-30T08:03:14.274Z,12.30
2022-10-30T08:05:15.951Z,12.40
2022-10-30T08:07:17.600Z,12.50
2022-10-30T08:09:19.143Z,12.60
2022-10-30T08:11:20.746Z,12.60
2022-10-30T08:13:24.191Z,12.70
2022-10-30T08:15:25.866Z,12.80
2022-10-30T08:17:27.587Z,12.90
2022-10-30T08:19:29.147Z,13.00
2022-10-30T08:21:30.734Z,13.10
2022-10-30T08:23:32.419Z,13.20
2022-10-30T08:25:34.065Z,13.20
2022-10-30T08:27:35.629Z,13.30
2022-10-30T08:29:37.203Z,13.40
2022-10-30T08:31:38.819Z,13.50
2022-10-30T08:33:40.482Z,13.60
2022-10-30T08:35:51.325Z,13.70
2022-10-30T08:38:00.044Z,13.90
2022-10-30T08:40:02.212Z,14.10
2022-10-30T08:42:03.800Z,14.20
2022-10-30T08:44:05.490Z,14.10
2022-10-30T08:46:07.142Z,14.20
2022-10-30T08:48:12.860Z,14.50
2022-10-30T08:50:14.626Z,14.60
2022-10-30T08:52:16.319Z,14.60
2022-10-30T08:54:18.095Z,14.80
2022-10-30T08:56:19.654Z,14.70
2022-10-30T08:58:21.283Z,14.70
2022-10-30T09:00:22.959Z,14.80
2022-10-30T09:02:24.764Z,14.90
2022-10-30T09:04:26.483Z,15.00
2022-10-30T09:06:28.084Z,15.00
2022-10-30T09:08:29.710Z,15.10
2022-10-30T09:10:31.868Z,15.30
2022-10-30T09:12:33.616Z,15.40
2022-10-30T09:14:35.317Z,15.50
2022-10-30T09:16:36.870Z,15.60
2022-10-30T09:18:38.545Z,15.80
2022-10-30T09:20:40.167Z,15.80
2022-10-30T09:22:42.210Z,15.90
2022-10-30T09:24:43.827Z,16.00
2022-10-30T09:26:45.381Z,16.10
2022-10-30T09:28:47.501Z,16.20
2022-10-30T09:30:52.874Z,16.30
2022-10-30T09:32:55.303Z,16.40
2022-10-30T09:34:56.996Z,16.60
2022-10-30T09:36:58.589Z,16.70
2022-10-30T09:39:00.358Z,16.80
2022-10-30T09:41:02.012Z,16.90
2022-10-30T09:43:08.583Z,16.90
2022-10-30T09:45:30.112Z,17.00
2022-10-30T09:47:45.340Z,16.90
2022-10-30T09:50:05.650Z,17.10
2022-10-30T09:52:13.584Z,17.20
2022-10-30T09:54:21.383Z,17.50
2022-10-30T09:56:22.916Z,17.70
2022-10-30T09:58:44.461Z,17.90
2022-10-30T10:01:07.410Z,18.00
2022-10-30T10:03:18.290Z,18.00
2022-10-30T10:05:25.859Z,18.20
2022-10-30T10:07:29.853Z,18.20
2022-10-30T10:09:33.191Z,18.30
2022-10-30T10:11:43.038Z,18.40
2022-10-30T10:13:47.645Z,18.70
2022-10-30T10:15:51.652Z,18.90
2022-10-30T10:17:53.407Z,18.80
2022-10-30T10:20:01.913Z,18.80
2022-10-30T10:22:05.640Z,18.80
2022-10-30T10:24:14.849Z,18.90
2022-10-30T10:26:42.682Z,19.10
2022-10-30T10:29:02.854Z,19.20
2022-10-30T10:31:19.940Z,19.40
2022-10-30T10:35:34.007Z,19.80
2022-10-30T10:37:50.903Z,19.90
2022-10-30T10:39:52.433Z,20.20
2022-10-30T10:41:54.001Z,20.10
2022-10-30T10:43:55.546Z,20.10
2022-10-30T10:46:03.212Z,20.20
2022-10-30T10:48:10.803Z,20.30
2022-10-30T10:50:26.138Z,20.30
2022-10-30T10:52:42.582Z,20.30
2022-10-30T10:55:04.497Z,20.50
2022-10-30T10:57:07.668Z,20.80
2022-10-30T10:59:31.931Z,21.00
2022-10-30T11:01:37.462Z,21.40
2022-10-30T11:04:00.013Z,21.50
2022-10-30T11:06:21.237Z,21.60
2022-10-30T11:08:25.638Z,21.60
2022-10-30T11:10:27.274Z,21.60
2022-10-30T11:12:33.746Z,21.70
2022-10-30T11:14:37.786Z,21.90
2022-10-30T11:16:50.296Z,22.30
2022-10-30T11:18:54.966Z,22.40
2022-10-30T11:21:01.747Z,22.70
2022-10-30T11:23:03.661Z,22.80
2022-10-30T11:25:26.926Z,22.80
2022-10-30T11:27:32.075Z,22.90
2022-10-30T11:29:33.695Z,22.90
2022-10-30T11:31:40.285Z,23.10
2022-10-30T11:33:41.961Z,23.20
2022-10-30T11:35:43.626Z,23.30
2022-10-30T11:37:46.416Z,23.30
2022-10-30T11:40:00.983Z,23.30
2022-10-30T11:42:02.640Z,23.30
2022-10-30T11:44:04.563Z,23.70
2022-10-30T11:46:09.546Z,23.50
2022-10-30T11:48:31.634Z,23.40
2022-10-30T11:50:33.432Z,23.50
2022-10-30T11:52:40.163Z,23.70
2022-10-30T11:54:44.734Z,23.70
2022-10-30T11:56:47.856Z,23.70
2022-10-30T11:58:50.733Z,23.70
2022-10-30T12:00:59.906Z,23.60
2022-10-30T12:03:01.996Z,23.70
2022-10-30T12:05:23.833Z,23.80
2022-10-30T12:07:29.937Z,23.90
2022-10-30T12:09:31.583Z,24.10
2022-10-30T12:11:34.427Z,24.00
2022-10-30T12:13:38.535Z,24.00
2022-10-30T12:15:40.168Z,24.10
2022-10-30T12:17:50.289Z,24.10
2022-10-30T12:19:53.507Z,24.00
2022-10-30T12:21:58.633Z,24.10
2022-10-30T12:24:06.754Z,24.30
2022-10-30T12:26:10.315Z,24.50
2022-10-30T12:28:14.457Z,24.70
2022-10-30T12:30:17.810Z,25.10
2022-10-30T12:32:21.636Z,25.30
2022-10-30T12:34:23.195Z,25.00
2022-10-30T12:36:29.959Z,25.20
2022-10-30T12:38:50.200Z,25.70
2022-10-30T12:40:58.772Z,25.90
2022-10-30T12:43:12.460Z,26.00
2022-10-30T12:45:17.200Z,25.70
2022-10-30T12:47:27.619Z,25.50
2022-10-30T12:49:35.987Z,25.60
2022-10-30T12:51:40.685Z,25.70
2022-10-30T12:53:42.215Z,25.90
2022-10-30T12:55:46.187Z,25.70
2022-10-30T12:58:08.006Z,25.50
2022-10-30T13:00:14.828Z,25.30
2022-10-30T13:02:22.569Z,25.00
2022-10-30T13:04:44.508Z,24.80
2022-10-30T13:06:48.902Z,24.40
2022-10-30T13:08:56.590Z,24.50
2022-10-30T13:11:11.638Z,24.60
2022-10-30T13:13:15.804Z,24.60
2022-10-30T13:15:23.294Z,24.50
2022-10-30T13:17:24.953Z,24.60
2022-10-30T13:19:28.118Z,24.50
2022-10-30T13:21:29.725Z,24.50
2022-10-30T13:23:54.616Z,24.40
2022-10-30T13:25:59.256Z,24.30
2022-10-30T13:28:27.199Z,24.30
2022-10-30T13:30:32.603Z,24.20
2022-10-30T13:32:52.763Z,24.30
2022-10-30T13:35:15.695Z,24.50
2022-10-30T13:37:24.114Z,24.70
2022-10-30T13:39:25.670Z,24.60
2022-10-30T13:41:36.157Z,24.50
2022-10-30T13:43:41.919Z,24.60
2022-10-30T13:45:50.717Z,24.70
2022-10-30T13:48:07.572Z,24.70
2022-10-30T13:50:27.410Z,24.70
2022-10-30T13:52:31.319Z,24.90
2022-10-30T13:54:37.223Z,24.60
2022-10-30T13:56:39.500Z,24.70
2022-10-30T13:58:56.408Z,24.90
2022-10-30T14:01:05.380Z,25.00
2022-10-30T14:03:10.284Z,25.00
2022-10-30T14:05:22.867Z,25.00
2022-10-30T14:07:24.387Z,25.10
2022-10-30T14:09:26.079Z,25.10
2022-10-30T14:11:27.706Z,24.90
2022-10-30T14:13:43.787Z,24.70
2022-10-30T14:15:46.427Z,24.70
2022-10-30T14:18:06.613Z,24.40
2022-10-30T14:20:14.311Z,24.20
2022-10-30T14:22:23.389Z,24.00
2022-10-30T14:26:26.534Z,23.70
2022-10-30T14:28:28.328Z,23.50
2022-10-30T14:30:29.999Z,23.30
2022-10-30T14:32:35.304Z,23.20
2022-10-30T14:34:56.968Z,23.10
2022-10-30T14:36:58.610Z,22.80
2022-10-30T14:39:01.379Z,22.60
2022-10-30T14:41:08.400Z,22.40
2022-10-30T14:43:19.910Z,22.20
2022-10-30T14:45:30.756Z,22.00
2022-10-30T14:47:39.056Z,21.90
2022-10-30T14:49:46.403Z,21.80
2022-10-30T14:51:58.705Z,21.70
2022-10-30T14:54:00.365Z,21.50
2022-10-30T14:56:07.170Z,21.40
2022-10-30T14:58:15.964Z,21.30
2022-10-30T15:00:23.322Z,21.20
2022-10-30T15:02:35.735Z,21.10
2022-10-30T15:04:52.685Z,21.10
2022-10-30T15:06:58.061Z,20.90
2022-10-30T15:09:11.761Z,20.80
2022-10-30T15:11:25.255Z,20.70
2022-10-30T15:13:26.889Z,20.60
2022-10-30T15:15:28.726Z,20.40
2022-10-30T15:17:32.863Z,20.30
2022-10-30T15:19:34.918Z,20.20
2022-10-30T15:21:41.648Z,20.10
2022-10-30T15:23:43.266Z,20.00
2022-10-30T15:25:50.254Z,20.00
2022-10-30T15:27:53.882Z,19.90
2022-10-30T15:29:56.732Z,19.90
2022-10-30T15:32:02.199Z,19.90
2022-10-30T15:34:14.801Z,19.80
2022-10-30T15:36:16.363Z,19.70
2022-10-30T15:38:17.937Z,19.60
2022-10-30T15:40:20.448Z,19.50
2022-10-30T15:42:22.070Z,19.40
2022-10-30T15:44:37.391Z,19.30
2022-10-30T15:46:39.406Z,19.20
2022-10-30T15:48:44.984Z,19.00
2022-10-30T15:50:53.328Z,18.90
2022-10-30T15:52:55.394Z,18.80
2022-10-30T15:55:01.213Z,18.70
2022-10-30T15:57:43.225Z,18.70
2022-10-30T15:59:27.230Z,18.60
2022-10-30T16:01:33.425Z,18.60
2022-10-30T16:03:35.163Z,18.50
2022-10-30T16:05:36.882Z,18.40
2022-10-30T16:07:44.974Z,18.30
2022-10-30T16:09:52.734Z,18.10
2022-10-30T16:11:56.120Z,18.10
2022-10-30T16:13:57.694Z,18.00
2022-10-30T16:16:00.688Z,18.00
2022-10-30T16:18:06.116Z,17.90
2022-10-30T16:20:09.520Z,17.80
2022-10-30T16:22:14.444Z,17.70
2022-10-30T16:24:17.122Z,17.60
2022-10-30T16:26:37.646Z,17.60
2022-10-30T16:28:39.300Z,17.50
2022-10-30T16:30:41.026Z,17.50
2022-10-30T16:32:44.880Z,17.40
2022-10-30T16:34:47.391Z,17.40
2022-10-30T16:36:49.786Z,17.30
2022-10-30T16:38:51.551Z,17.20
2022-10-30T16:40:53.386Z,17.20
2022-10-30T16:42:57.972Z,17.10
2022-10-30T16:45:22.825Z,17.00
2022-10-30T16:47:25.293Z,16.90
2022-10-30T16:49:28.215Z,17.00
2022-10-30T16:51:30.032Z,16.90
2022-10-30T16:53:31.976Z,16.80
2022-10-30T16:55:34.888Z,16.80
2022-10-30T16:57:37.761Z,16.70
2022-10-30T16:59:44.545Z,16.70
2022-10-30T17:01:52.081Z,16.70
2022-10-30T17:03:54.507Z,16.60
2022-10-30T17:06:00.919Z,16.50
2022-10-30T17:08:25.771Z,16.40
2022-10-30T17:10:43.699Z,16.40
2022-10-30T17:12:45.373Z,16.40
2022-10-30T17:14:46.925Z,16.30
2022-10-30T17:16:55.824Z,16.30
2022-10-30T17:18:58.617Z,16.20
2022-10-30T17:21:08.219Z,16.20
2022-10-30T17:23:19.588Z,16.20
2022-10-30T17:25:30.347Z,16.10
2022-10-30T17:27:35.010Z,16.20
2022-10-30T17:29:36.790Z,16.20
2022-10-30T17:31:38.482Z,16.10
2022-10-30T17:33:40.149Z,16.10
2022-10-30T17:35:41.836Z,15.90
2022-10-30T17:37:43.779Z,15.80
2022-10-30T17:39:45.490Z,15.80
2022-10-30T17:41:47.559Z,15.60
2022-10-30T17:43:51.230Z,15.60
2022-10-30T17:45:52.829Z,15.50
2022-10-30T17:47:54.628Z,15.50
2022-10-30T17:49:56.197Z,15.50
2022-10-30T17:51:58.363Z,15.40
2022-10-30T17:54:00.016Z,15.40
2022-10-30T17:56:10.867Z,15.40
2022-10-30T17:58:12.458Z,15.50
2022-10-30T18:00:14.230Z,15.40
2022-10-30T18:02:17.149Z,15.30
2022-10-30T18:04:20.832Z,15.30
2022-10-30T18:06:27.234Z,15.20
2022-10-30T18:08:28.867Z,15.20
2022-10-30T18:10:30.708Z,15.10
2022-10-30T18:12:32.300Z,15.10
2022-10-30T18:14:33.851Z,15.20
2022-10-30T18:16:35.419Z,15.10
2022-10-30T18:18:37.196Z,14.90
2022-10-30T18:20:38.839Z,14.90
2022-10-30T18:22:40.411Z,14.80
2022-10-30T18:24:42.775Z,14.80
2022-10-30T18:26:44.463Z,14.60
2022-10-30T18:28:46.744Z,14.70
2022-10-30T18:30:52.119Z,14.60
2022-10-30T18:32:53.835Z,14.60
2022-10-30T18:34:55.747Z,14.50
2022-10-30T18:36:57.390Z,14.60
2022-10-30T18:38:59.037Z,14.50
2022-10-30T18:41:00.729Z,14.50
2022-10-30T18:43:02.802Z,14.50
2022-10-30T18:45:21.418Z,14.40
2022-10-30T18:47:23.074Z,14.50
2022-10-30T18:49:28.810Z,14.50
2022-10-30T18:51:30.806Z,14.40
2022-10-30T18:53:35.220Z,14.40
2022-10-30T18:55:38.308Z,14.30
2022-10-30T18:57:39.908Z,14.50
2022-10-30T18:59:41.564Z,14.40
2022-10-30T19:01:43.199Z,14.40
2022-10-30T19:03:45.463Z,14.30
2022-10-30T19:05:48.307Z,14.40
2022-10-30T19:07:49.945Z,14.40
2022-10-30T19:09:51.625Z,14.30
2022-10-30T19:11:53.188Z,14.30
2022-10-30T19:13:54.915Z,14.20
2022-10-30T19:16:00.378Z,14.30
2022-10-30T19:18:03.136Z,14.30
2022-10-30T19:20:04.920Z,14.20
2022-10-30T19:22:06.521Z,14.10
2022-10-30T19:24:12.018Z,14.10
2022-10-30T19:26:14.997Z,14.20
2022-10-30T19:28:17.269Z,14.10
2022-10-30T19:30:19.248Z,13.90
2022-10-30T19:32:20.843Z,13.80
2022-10-30T19:34:22.437Z,13.70
2022-10-30T19:36:26.958Z,13.70
2022-10-30T19:38:29.015Z,13.70
2022-10-30T19:40:34.831Z,13.60
2022-10-30T19:42:36.391Z,13.60
2022-10-30T19:44:38.001Z,13.70
2022-10-30T19:46:39.664Z,13.70
2022-10-30T19:48:56.801Z,13.70
2022-10-30T19:50:59.659Z,13.70
2022-10-30T19:53:02.192Z,13.70
2022-10-30T19:55:04.228Z,13.80
2022-10-30T19:57:08.288Z,13.70
2022-10-30T19:59:11.272Z,13.60
2022-10-30T20:01:13.565Z,13.50
2022-10-30T20:03:15.630Z,13.50
2022-10-30T20:05:17.380Z,13.60
2022-10-30T20:07:19.022Z,13.60
2022-10-30T20:09:21.614Z,13.50
2022-10-30T20:11:23.216Z,13.50
2022-10-30T20:13:25.735Z,13.40
2022-10-30T20:15:27.849Z,13.40
2022-10-30T20:17:29.420Z,13.30
2022-10-30T20:19:31.333Z,13.30
2022-10-30T20:21:33.573Z,13.20
2022-10-30T20:23:35.628Z,13.20
2022-10-30T20:25:37.252Z,13.20
2022-10-30T20:27:39.482Z,13.20
2022-10-30T20:29:42.569Z,13.20
2022-10-30T20:31:44.174Z,13.20
2022-10-30T20:33:45.972Z,13.20
2022-10-30T20:35:48.167Z,13.10
2022-10-30T20:37:57.205Z,13.20
2022-10-30T20:39:58.893Z,13.30
2022-10-30T20:42:00.523Z,13.30
2022-10-30T20:44:02.274Z,13.20
2022-10-30T20:46:04.876Z,13.00
2022-10-30T20:48:06.502Z,13.00
2022-10-30T20:50:08.445Z,13.20
2022-10-30T20:52:10.102Z,13.00
2022-10-30T20:54:11.662Z,13.00
2022-10-30T20:56:13.336Z,12.80
2022-10-30T20:58:15.129Z,12.70
2022-10-30T21:00:16.857Z,12.80
2022-10-30T21:02:18.634Z,12.90
2022-10-30T21:04:20.301Z,13.00
2022-10-30T21:06:21.828Z,12.90
2022-10-30T21:08:23.648Z,12.70
2022-10-30T21:10:30.180Z,12.80
2022-10-30T21:12:32.104Z,12.80
2022-10-30T21:14:34.024Z,12.80
2022-10-30T21:16:35.586Z,12.70
2022-10-30T21:18:37.195Z,12.60
2022-10-30T21:20:39.151Z,12.50
2022-10-30T21:22:40.703Z,12.60
2022-10-30T21:24:42.313Z,12.70
2022-10-30T21:26:43.884Z,12.70
2022-10-30T21:28:45.456Z,12.80
2022-10-30T21:30:47.040Z,12.70
2022-10-30T21:32:48.650Z,12.50
2022-10-30T21:34:50.219Z,12.40
2022-10-30T21:36:51.832Z,12.40
2022-10-30T21:38:53.568Z,12.40
2022-10-30T21:40:56.333Z,12.40
2022-10-30T21:43:01.355Z,12.40
2022-10-30T21:45:06.215Z,12.40
2022-10-30T21:47:07.921Z,12.30
2022-10-30T21:49:10.991Z,12.30
2022-10-30T21:51:13.862Z,12.40
2022-10-30T21:53:15.411Z,12.30
2022-10-30T21:55:17.224Z,12.30
2022-10-30T21:57:20.697Z,12.40
2022-10-30T21:59:24.127Z,12.20
2022-10-30T22:01:27.796Z,12.20
2022-10-30T22:03:29.571Z,12.10
2022-10-30T22:05:32.078Z,12.20
2022-10-30T22:07:33.627Z,12.20
2022-10-30T22:09:35.295Z,12.20
2022-10-30T22:11:37.031Z,12.10
2022-10-30T22:13:38.614Z,12.10
2022-10-30T22:15:40.174Z,12.10
2022-10-30T22:17:42.191Z,12.20
2022-10-30T22:19:43.818Z,12.30
2022-10-30T22:21:45.697Z,12.10
2022-10-30T22:23:47.311Z,12.10
2022-10-30T22:25:59.885Z,12.10
2022-10-30T22:28:02.191Z,12.00
2022-10-30T22:30:04.316Z,12.00
2022-10-30T22:32:05.941Z,12.10
2022-10-30T22:34:07.613Z,12.20
2022-10-30T22:36:17.048Z,12.20
2022-10-30T22:38:18.657Z,12.00
2022-10-30T22:40:20.291Z,12.00
2022-10-30T22:42:21.852Z,12.00
2022-10-30T22:44:23.809Z,11.90
2022-10-30T22:46:26.721Z,11.90
2022-10-30T22:48:28.990Z,11.70
2022-10-30T22:50:30.561Z,11.70
2022-10-30T22:52:32.131Z,11.70
2022-10-30T22:54:33.844Z,11.80
2022-10-30T22:56:36.237Z,11.70
2022-10-30T22:58:37.819Z,11.70
2022-10-30T23:00:39.393Z,11.60
2022-10-30T23:02:40.938Z,11.60
2022-10-30T23:04:42.570Z,11.60
2022-10-30T23:06:44.479Z,11.50
2022-10-30T23:08:46.112Z,11.50
2022-10-30T23:10:51.679Z,11.50
2022-10-30T23:12:53.254Z,11.50
2022-10-30T23:14:54.847Z,11.50
2022-10-30T23:16:56.430Z,11.40
2022-10-30T23:18:58.825Z,11.40
2022-10-30T23:21:01.910Z,11.40
2022-10-30T23:23:04.102Z,11.40
2022-10-30T23:25:05.797Z,11.40
2022-10-30T23:27:07.421Z,11.50
2022-10-30T23:29:08.977Z,11.50
2022-10-30T23:31:15.872Z,11.50
2022-10-30T23:33:17.426Z,11.50
2022-10-30T23:35:18.987Z,11.50
2022-10-30T23:37:20.576Z,11.50
2022-10-30T23:39:22.171Z,11.50
2022-10-30T23:41:25.230Z,11.50
2022-10-30T23:43:26.800Z,11.50
2022-10-30T23:45:28.529Z,11.50
2022-10-30T23:47:30.102Z,11.50
2022-10-30T23:49:34.094Z,11.40
2022-10-30T23:51:36.037Z,11.30
2022-10-30T23:53:37.659Z,11.20
2022-10-30T23:55:39.311Z,11.20
2022-10-30T23:57:40.880Z,11.40
2022-10-30T23:59:42.465Z,11.40
